Time;durP1;ratioP1;P1;durP2;ratioP2;P2;SDS_P1;SDS_P2;PMS_P1;PMS_P2;Temp;Humidity;BMP_temperature;BMP_pressure;BME280_temperature;BME280_humidity;BME280_pressure;Samples;Min_cycle;Max_cycle;Signal;HPM_P1;HPM_P2
2023/09/02 00:01:45;;;;;;;60.20;34.85;;;17.40;99.90;;;;;;5083578;28;37633;-83
2023/09/02 00:04:11;;;;;;;45.83;30.17;;;17.30;99.90;;;;;;5080958;28;37675;-83
2023/09/02 00:06:37;;;;;;;46.20;28.50;;;17.30;99.90;;;;;;5082460;28;37298;-82
2023/09/02 00:09:03;;;;;;;48.15;31.40;;;17.20;99.90;;;;;;5108647;28;38306;-83
2023/09/02 00:11:29;;;;;;;45.53;30.52;;;17.30;99.90;;;;;;5088372;28;38793;-84
2023/09/02 00:13:56;;;;;;;54.08;32.83;;;17.20;99.90;;;;;;5098735;27;38382;-83
2023/09/02 00:16:22;;;;;;;43.97;30.05;;;17.20;99.90;;;;;;5080194;28;38197;-83
2023/09/02 00:18:48;;;;;;;39.28;27.88;;;17.20;99.90;;;;;;5074618;28;36629;-83
2023/09/02 00:21:14;;;;;;;42.97;28.95;;;17.10;99.90;;;;;;5107247;28;39312;-84
2023/09/02 00:23:45;;;;;;;38.88;26.85;;;17.10;99.90;;;;;;5080010;28;38099;-83
2023/09/02 00:26:11;;;;;;;38.25;27.48;;;17.00;99.90;;;;;;5086285;28;37931;-83
2023/09/02 00:28:38;;;;;;;38.28;26.92;;;16.90;99.90;;;;;;5078649;28;35217;-83
2023/09/02 00:31:04;;;;;;;40.92;26.95;;;16.90;99.90;;;;;;5082579;28;37512;-82
2023/09/02 00:33:30;;;;;;;42.95;27.92;;;16.90;99.90;;;;;;5100408;27;38917;-83
2023/09/02 00:35:56;;;;;;;37.72;27.15;;;16.70;99.90;;;;;;5100787;27;38069;-83
2023/09/02 00:38:22;;;;;;;37.10;25.90;;;16.70;99.90;;;;;;5089154;28;36655;-83
2023/09/02 00:41:00;;;;;;;35.28;25.02;;;16.70;99.90;;;;;;5083621;28;39151;-84
2023/09/02 00:43:27;;;;;;;33.80;24.25;;;16.60;99.90;;;;;;5085268;28;38575;-83
2023/09/02 00:45:53;;;;;;;38.00;25.63;;;16.60;99.90;;;;;;5094393;27;38637;-84
2023/09/02 00:48:20;;;;;;;34.38;24.98;;;16.60;99.90;;;;;;5085412;28;35464;-82
2023/09/02 00:50:46;;;;;;;38.22;24.15;;;16.50;99.90;;;;;;5082661;28;38791;-84
2023/09/02 00:53:13;;;;;;;34.38;24.35;;;16.60;99.90;;;;;;5097930;27;38020;-83
2023/09/02 00:55:39;;;;;;;38.58;25.75;;;16.50;99.90;;;;;;5087518;27;38839;-84
2023/09/02 00:58:07;;;;;;;32.63;23.42;;;16.40;99.90;;;;;;5085402;28;37245;-84
2023/09/02 01:03:10;;;;;;;29.63;21.35;;;16.40;99.90;;;;;;5343227;22;19971;-80
2023/09/02 01:05:36;;;;;;;29.85;21.27;;;16.40;99.90;;;;;;5052360;28;37916;-80
2023/09/02 01:08:05;;;;;;;33.38;22.35;;;16.40;99.90;;;;;;5054837;28;37301;-79
2023/09/02 01:10:34;;;;;;;31.48;22.30;;;16.30;99.90;;;;;;5062487;28;38711;-80
2023/09/02 01:13:02;;;;;;;33.78;22.50;;;16.30;99.90;;;;;;5065563;28;39100;-80
2023/09/02 01:15:28;;;;;;;29.10;20.13;;;16.30;99.90;;;;;;5041517;28;47031;-79
2023/09/02 01:17:55;;;;;;;30.20;20.38;;;16.30;99.90;;;;;;5046148;28;36365;-79
2023/09/02 01:20:33;;;;;;;30.70;21.35;;;16.20;99.90;;;;;;5046210;28;38856;-80
2023/09/02 01:23:21;;;;;;;28.52;20.42;;;16.20;99.90;;;;;;5063559;28;38032;-80
2023/09/02 01:25:59;;;;;;;34.28;23.02;;;16.30;99.90;;;;;;5061156;28;47151;-80
2023/09/02 01:28:29;;;;;;;40.83;22.63;;;16.30;99.90;;;;;;5062731;28;38441;-79
2023/09/02 01:30:56;;;;;;;33.38;22.15;;;16.30;99.90;;;;;;5044769;28;37478;-79
2023/09/02 01:33:26;;;;;;;31.77;22.30;;;16.40;99.90;;;;;;5048818;28;37601;-80
2023/09/02 01:35:53;;;;;;;69.80;33.67;;;16.40;99.90;;;;;;5045248;28;37387;-79
2023/09/02 01:38:24;;;;;;;44.40;28.13;;;16.40;99.90;;;;;;5040514;28;36338;-79
2023/09/02 01:40:52;;;;;;;35.58;23.35;;;16.50;99.90;;;;;;5046659;28;37661;-79
2023/09/02 01:43:20;;;;;;;43.08;27.73;;;16.50;99.90;;;;;;5049685;28;37573;-80
2023/09/02 01:45:47;;;;;;;38.15;25.17;;;16.50;99.90;;;;;;5046518;28;38105;-79
2023/09/02 01:48:15;;;;;;;71.28;34.55;;;16.60;99.90;;;;;;5047006;28;37470;-80
2023/09/02 01:50:42;;;;;;;61.97;33.65;;;16.60;99.90;;;;;;5056907;28;38615;-79
2023/09/02 01:53:08;;;;;;;59.65;32.00;;;16.70;99.90;;;;;;5064299;28;38370;-80
2023/09/02 01:55:35;;;;;;;53.35;30.33;;;16.70;99.90;;;;;;5066554;28;39034;-80
2023/09/02 01:58:01;;;;;;;49.03;27.38;;;16.70;99.90;;;;;;5045809;28;36207;-79
2023/09/02 02:00:28;;;;;;;57.03;31.27;;;16.70;99.90;;;;;;5050282;28;47221;-80
2023/09/02 02:02:54;;;;;;;68.90;35.20;;;16.80;99.90;;;;;;5047460;28;37380;-79
2023/09/02 02:05:26;;;;;;;64.25;35.50;;;16.80;99.90;;;;;;5062917;28;39158;-79
2023/09/02 02:07:58;;;;;;;85.57;43.35;;;16.80;99.90;;;;;;5066744;28;37211;-80
2023/09/02 02:10:27;;;;;;;66.05;37.15;;;16.80;99.90;;;;;;5058799;28;39868;-80
2023/09/02 02:12:53;;;;;;;78.03;37.38;;;16.90;99.90;;;;;;5058106;28;37378;-81
2023/09/02 02:15:19;;;;;;;51.00;33.75;;;16.90;99.90;;;;;;5044100;28;38234;-79
2023/09/02 02:17:45;;;;;;;83.32;38.58;;;16.90;99.90;;;;;;5061466;28;37047;-79
2023/09/02 02:20:11;;;;;;;73.32;37.28;;;16.90;99.90;;;;;;5046717;28;38769;-79
2023/09/02 02:22:38;;;;;;;75.68;36.70;;;16.80;99.90;;;;;;5048041;28;40563;-79
2023/09/02 02:25:07;;;;;;;92.28;38.83;;;16.80;99.90;;;;;;5065088;28;39070;-80
2023/09/02 02:27:33;;;;;;;114.15;37.72;;;16.80;99.90;;;;;;5036577;28;47223;-80
2023/09/02 02:30:00;;;;;;;44.70;33.17;;;16.80;99.90;;;;;;5059741;28;38013;-80
2023/09/02 02:32:26;;;;;;;67.55;34.75;;;16.90;99.90;;;;;;5065160;28;38480;-80
2023/09/02 02:34:54;;;;;;;87.45;38.50;;;16.90;99.90;;;;;;5041106;28;38361;-80
2023/09/02 02:37:20;;;;;;;83.10;32.05;;;16.80;99.90;;;;;;5039760;28;36675;-80
2023/09/02 02:39:46;;;;;;;44.28;33.95;;;16.80;99.90;;;;;;5044654;28;38477;-79
2023/09/02 02:42:14;;;;;;;108.80;34.67;;;16.70;99.90;;;;;;5050109;28;37836;-80
2023/09/02 02:44:41;;;;;;;46.05;31.95;;;16.70;99.90;;;;;;5067932;28;37151;-80
2023/09/02 02:47:07;;;;;;;144.23;36.08;;;16.70;99.90;;;;;;5066020;28;38220;-80
2023/09/02 02:49:33;;;;;;;68.97;34.00;;;16.70;99.90;;;;;;5060256;28;38228;-80
2023/09/02 02:52:01;;;;;;;38.10;30.77;;;16.70;99.90;;;;;;5065700;28;38118;-80
2023/09/02 02:54:27;;;;;;;45.85;30.90;;;16.70;99.90;;;;;;5057971;28;46617;-80
2023/09/02 02:56:54;;;;;;;43.00;32.30;;;16.70;99.90;;;;;;5048049;28;36403;-79
2023/09/02 02:59:20;;;;;;;34.92;29.83;;;16.80;99.90;;;;;;5048798;28;37695;-80
2023/09/02 03:01:46;;;;;;;67.55;33.45;;;16.80;99.90;;;;;;5066775;28;37879;-80
2023/09/02 03:04:13;;;;;;;57.13;34.28;;;16.80;99.90;;;;;;5063973;28;38143;-80
2023/09/02 03:06:39;;;;;;;48.25;29.55;;;16.80;99.90;;;;;;5063306;28;37645;-79
2023/09/02 03:09:06;;;;;;;34.95;28.67;;;16.70;99.90;;;;;;5060450;28;39609;-80
2023/09/02 03:11:32;;;;;;;44.13;32.28;;;16.80;99.90;;;;;;5049690;28;38369;-80
2023/09/02 03:13:59;;;;;;;39.72;31.08;;;16.80;99.90;;;;;;5037117;28;37130;-80
2023/09/02 03:16:25;;;;;;;36.05;27.48;;;16.80;99.90;;;;;;5045190;28;37279;-80
2023/09/02 03:18:53;;;;;;;36.90;29.42;;;16.80;99.90;;;;;;5063893;28;38825;-79
2023/09/02 03:21:19;;;;;;;40.88;30.25;;;16.80;99.90;;;;;;5067532;28;38150;-80
2023/09/02 03:23:46;;;;;;;36.05;30.10;;;16.90;99.90;;;;;;5067147;28;38215;-80
2023/09/02 03:26:16;;;;;;;37.00;29.48;;;16.90;99.90;;;;;;5051121;28;36479;-80
2023/09/02 03:28:42;;;;;;;41.13;28.95;;;16.90;99.90;;;;;;5043519;28;38198;-80
2023/09/02 03:31:10;;;;;;;31.10;27.70;;;16.90;99.90;;;;;;5067226;28;39555;-79
2023/09/02 03:33:37;;;;;;;52.17;32.47;;;16.70;99.90;;;;;;5067699;28;39043;-79
2023/09/02 03:36:04;;;;;;;56.58;29.80;;;16.60;99.90;;;;;;5052568;28;37768;-79
2023/09/02 03:38:30;;;;;;;74.75;30.88;;;16.60;99.90;;;;;;5071401;28;39275;-79
2023/09/02 03:40:57;;;;;;;46.55;28.70;;;16.50;99.90;;;;;;5060235;28;38629;-79
2023/09/02 03:43:23;;;;;;;38.25;31.92;;;16.50;99.90;;;;;;5066270;28;37951;-79
2023/09/02 03:45:49;;;;;;;33.22;29.40;;;16.50;99.90;;;;;;5069362;28;37206;-79
2023/09/02 03:48:19;;;;;;;38.65;30.58;;;16.50;99.90;;;;;;5069061;28;38497;-78
2023/09/02 03:51:03;;;;;;;48.67;31.77;;;16.60;99.90;;;;;;5066581;28;39252;-79
2023/09/02 03:53:31;;;;;;;41.10;28.88;;;16.60;99.90;;;;;;5045321;28;47618;-79
2023/09/02 03:55:57;;;;;;;34.42;28.55;;;16.50;99.90;;;;;;5064878;28;38039;-79
2023/09/02 03:58:24;;;;;;;34.83;29.52;;;16.50;99.90;;;;;;5049093;28;37787;-79
2023/09/02 04:00:51;;;;;;;35.08;28.85;;;16.50;99.90;;;;;;5069574;28;37394;-80
2023/09/02 04:03:19;;;;;;;46.63;30.85;;;16.60;99.90;;;;;;5047232;28;37905;-79
2023/09/02 04:05:46;;;;;;;75.38;27.38;;;16.60;99.90;;;;;;5058118;28;37653;-79
2023/09/02 04:08:15;;;;;;;57.10;30.27;;;16.60;99.90;;;;;;5044016;28;39527;-79
2023/09/02 04:10:41;;;;;;;32.70;27.73;;;16.60;99.90;;;;;;5046880;28;39862;-79
2023/09/02 04:13:07;;;;;;;34.08;27.08;;;16.60;99.90;;;;;;5040475;28;37423;-80
2023/09/02 04:15:33;;;;;;;35.00;28.17;;;16.60;99.90;;;;;;5048995;28;36336;-80
2023/09/02 04:17:59;;;;;;;33.10;28.20;;;16.50;99.90;;;;;;5048461;28;38161;-80
2023/09/02 04:20:26;;;;;;;43.70;26.77;;;16.50;99.90;;;;;;5047469;28;37398;-80
2023/09/02 04:22:52;;;;;;;33.33;27.92;;;16.50;99.90;;;;;;5060348;28;38994;-79
2023/09/02 04:25:19;;;;;;;28.08;25.00;;;16.50;99.90;;;;;;5048658;28;36391;-80
2023/09/02 04:27:46;;;;;;;32.15;28.45;;;16.50;99.90;;;;;;5051927;28;37693;-79
2023/09/02 04:30:12;;;;;;;34.95;25.23;;;16.40;99.90;;;;;;5067821;28;39133;-79
2023/09/02 04:32:38;;;;;;;51.95;27.17;;;16.30;99.90;;;;;;5047504;28;36944;-79
2023/09/02 04:35:05;;;;;;;33.70;25.42;;;16.30;99.90;;;;;;5051341;28;36850;-79
2023/09/02 04:37:31;;;;;;;26.38;23.13;;;16.20;99.90;;;;;;5065476;28;39632;-79
2023/09/02 04:39:57;;;;;;;35.28;23.75;;;16.10;99.90;;;;;;5067272;28;38215;-79
2023/09/02 04:42:23;;;;;;;33.97;25.15;;;16.20;99.90;;;;;;5044850;28;37080;-79
2023/09/02 04:44:50;;;;;;;72.07;26.77;;;16.20;99.90;;;;;;5062831;28;37382;-79
2023/09/02 04:47:16;;;;;;;30.10;25.88;;;16.20;99.90;;;;;;5065247;28;40779;-79
2023/09/02 04:49:42;;;;;;;27.35;23.88;;;16.20;99.90;;;;;;5044150;28;37229;-80
2023/09/02 04:52:09;;;;;;;52.78;30.45;;;16.30;99.90;;;;;;5064867;28;37288;-79
2023/09/02 04:54:35;;;;;;;27.73;24.80;;;16.30;99.90;;;;;;5044436;28;36576;-79
2023/09/02 04:57:01;;;;;;;46.80;25.95;;;16.30;99.90;;;;;;5066391;28;38840;-79
2023/09/02 04:59:27;;;;;;;40.00;25.73;;;16.30;99.90;;;;;;5067984;28;48661;-79
2023/09/02 05:01:53;;;;;;;62.05;25.50;;;16.30;99.90;;;;;;5046475;28;37989;-79
2023/09/02 05:04:19;;;;;;;24.40;22.00;;;16.20;99.90;;;;;;5066069;28;36936;-79
2023/09/02 05:06:45;;;;;;;30.20;23.55;;;16.20;99.90;;;;;;5048649;28;38644;-79
2023/09/02 05:09:11;;;;;;;49.70;26.83;;;16.20;99.90;;;;;;5058816;28;38282;-78
2023/09/02 05:11:37;;;;;;;37.30;23.45;;;16.20;99.90;;;;;;5040239;28;38667;-79
2023/09/02 05:14:03;;;;;;;22.92;20.83;;;16.10;99.90;;;;;;5055968;28;37567;-79
2023/09/02 05:16:30;;;;;;;46.45;22.30;;;16.20;99.90;;;;;;5064314;28;39008;-79
2023/09/02 05:18:56;;;;;;;22.58;20.45;;;16.20;99.90;;;;;;5061409;28;39263;-79
2023/09/02 05:21:22;;;;;;;19.20;17.50;;;16.20;99.90;;;;;;5070759;28;38834;-79
2023/09/02 05:23:48;;;;;;;24.52;22.02;;;16.20;99.90;;;;;;5066629;28;37238;-79
2023/09/02 05:26:14;;;;;;;23.13;20.67;;;16.20;99.90;;;;;;5048106;28;38773;-79
2023/09/02 05:28:40;;;;;;;21.90;19.77;;;16.30;99.90;;;;;;5047458;28;37315;-78
2023/09/02 05:31:06;;;;;;;24.70;22.20;;;16.30;99.90;;;;;;5064680;28;38948;-80
2023/09/02 05:33:32;;;;;;;23.13;20.80;;;16.40;99.90;;;;;;5064028;28;36304;-78
2023/09/02 05:35:59;;;;;;;23.25;20.83;;;16.40;99.90;;;;;;5048000;28;39136;-80
2023/09/02 05:38:25;;;;;;;22.80;20.50;;;16.40;99.90;;;;;;5064109;28;38173;-78
2023/09/02 05:40:52;;;;;;;26.88;22.38;;;16.50;99.90;;;;;;5064887;28;38859;-79
2023/09/02 05:43:18;;;;;;;22.67;20.27;;;16.50;99.90;;;;;;5049581;28;36316;-79
2023/09/02 05:45:44;;;;;;;25.45;22.75;;;16.50;99.90;;;;;;5063043;28;38878;-78
2023/09/02 05:48:10;;;;;;;26.33;23.50;;;16.60;99.90;;;;;;5043535;28;38170;-78
2023/09/02 05:50:36;;;;;;;61.08;28.77;;;16.70;99.90;;;;;;5059631;28;37839;-78
2023/09/02 05:53:03;;;;;;;31.05;27.05;;;16.70;99.90;;;;;;5044778;28;36462;-78
2023/09/02 05:55:29;;;;;;;27.52;24.30;;;16.70;99.90;;;;;;5046641;28;37660;-78
2023/09/02 05:57:55;;;;;;;26.38;22.80;;;16.80;99.90;;;;;;5045875;28;37390;-80
2023/09/02 06:00:21;;;;;;;33.22;26.15;;;16.80;99.90;;;;;;5058818;28;39212;-80
2023/09/02 06:02:47;;;;;;;46.45;27.63;;;16.90;99.90;;;;;;5038340;28;36257;-80
2023/09/02 06:05:13;;;;;;;29.52;25.33;;;16.90;99.90;;;;;;5052388;28;39356;-82
2023/09/02 06:07:39;;;;;;;51.88;27.85;;;16.90;99.90;;;;;;5058197;28;38067;-82
2023/09/02 06:10:06;;;;;;;31.52;26.42;;;17.00;99.90;;;;;;5038549;28;36959;-80
2023/09/02 06:12:32;;;;;;;33.00;25.33;;;17.00;99.90;;;;;;5059242;28;37220;-82
2023/09/02 06:14:58;;;;;;;37.78;27.25;;;17.10;99.90;;;;;;5047609;28;39005;-83
2023/09/02 06:17:28;;;;;;;57.55;29.73;;;17.20;99.90;;;;;;5035897;28;38448;-81
2023/09/02 06:19:55;;;;;;;32.28;26.65;;;17.20;99.90;;;;;;5045118;28;38000;-83
2023/09/02 06:22:21;;;;;;;34.55;28.42;;;17.20;99.90;;;;;;5045421;28;38218;-83
2023/09/02 06:24:47;;;;;;;26.27;23.45;;;17.20;99.90;;;;;;5059495;28;36863;-83
2023/09/02 06:27:13;;;;;;;45.42;27.70;;;17.20;99.90;;;;;;5048041;28;40424;-82
2023/09/02 06:29:43;;;;;;;89.10;31.73;;;17.20;99.90;;;;;;5047847;28;35994;-82
2023/09/02 06:32:10;;;;;;;118.90;35.40;;;17.30;99.90;;;;;;5046348;28;36815;-82
2023/09/02 06:34:36;;;;;;;32.85;25.23;;;17.40;99.90;;;;;;5050128;28;37449;-83
2023/09/02 06:37:02;;;;;;;32.47;25.20;;;17.40;99.90;;;;;;5051095;28;38205;-82
2023/09/02 06:39:28;;;;;;;31.67;26.58;;;17.40;99.90;;;;;;5062215;28;46990;-81
2023/09/02 06:41:54;;;;;;;33.78;27.30;;;17.50;99.90;;;;;;5048741;28;36482;-83
2023/09/02 06:44:20;;;;;;;36.47;27.92;;;17.40;99.90;;;;;;5059522;28;39713;-82
2023/09/02 06:46:47;;;;;;;38.53;27.20;;;17.50;99.90;;;;;;5067962;28;36523;-82
2023/09/02 06:49:13;;;;;;;44.72;29.73;;;17.50;99.90;;;;;;5044563;28;38340;-82
2023/09/02 06:51:39;;;;;;;31.98;26.33;;;17.50;99.90;;;;;;5063047;28;36226;-81
2023/09/02 06:54:05;;;;;;;34.42;27.48;;;17.50;99.90;;;;;;5060459;28;39212;-81
2023/09/02 06:56:31;;;;;;;33.75;26.42;;;17.70;99.90;;;;;;5048863;28;37727;-81
2023/09/02 06:58:58;;;;;;;37.15;28.63;;;17.70;99.90;;;;;;5046362;28;37004;-81
2023/09/02 07:01:24;;;;;;;63.90;35.67;;;17.80;99.90;;;;;;5061883;28;36378;-81
2023/09/02 07:03:50;;;;;;;34.17;26.48;;;17.80;99.90;;;;;;5061083;28;38721;-81
2023/09/02 07:06:17;;;;;;;35.95;26.83;;;17.90;99.90;;;;;;5064100;28;37548;-81
2023/09/02 07:08:43;;;;;;;36.45;27.27;;;17.90;99.90;;;;;;5044149;28;38679;-81
2023/09/02 07:11:11;;;;;;;34.70;26.55;;;18.00;99.90;;;;;;5043025;28;37568;-83
2023/09/02 07:13:38;;;;;;;36.60;27.10;;;18.00;99.90;;;;;;5048744;28;37545;-81
2023/09/02 07:16:06;;;;;;;37.30;27.38;;;18.10;99.90;;;;;;5045402;28;38001;-79
2023/09/02 07:18:33;;;;;;;37.25;26.67;;;18.20;99.90;;;;;;5044520;28;47204;-80
2023/09/02 07:21:01;;;;;;;40.03;29.27;;;18.20;99.90;;;;;;5051866;28;36876;-81
2023/09/02 07:23:28;;;;;;;36.38;28.08;;;18.20;99.90;;;;;;5047678;28;45326;-81
2023/09/02 07:25:56;;;;;;;37.78;27.08;;;18.30;99.90;;;;;;5041049;28;37340;-81
2023/09/02 07:28:23;;;;;;;38.22;29.25;;;18.30;99.90;;;;;;5065580;28;37311;-80
2023/09/02 07:30:49;;;;;;;42.38;30.23;;;18.20;99.90;;;;;;5049048;28;36386;-81
2023/09/02 07:33:15;;;;;;;35.30;26.98;;;18.20;99.90;;;;;;5048225;28;39702;-80
2023/09/02 07:35:41;;;;;;;41.05;29.52;;;18.30;99.90;;;;;;5049389;28;37327;-81
2023/09/02 07:38:07;;;;;;;39.40;30.33;;;18.40;99.90;;;;;;5047658;28;37871;-80
2023/09/02 07:40:33;;;;;;;32.20;26.58;;;18.50;99.90;;;;;;5068375;28;37428;-80
2023/09/02 07:43:01;;;;;;;40.53;30.02;;;18.50;99.90;;;;;;5049364;28;38683;-80
2023/09/02 07:45:28;;;;;;;38.05;29.40;;;18.50;99.90;;;;;;5046882;28;47300;-80
2023/09/02 07:47:55;;;;;;;31.35;25.95;;;18.50;99.90;;;;;;5064625;28;38871;-80
2023/09/02 07:50:21;;;;;;;43.65;30.98;;;18.60;99.90;;;;;;5048615;28;36715;-80
2023/09/02 07:52:48;;;;;;;34.15;27.98;;;18.60;99.90;;;;;;5069933;28;38663;-80
2023/09/02 07:55:15;;;;;;;41.95;32.05;;;18.70;99.90;;;;;;5070659;28;38570;-81
2023/09/02 07:57:41;;;;;;;34.85;29.20;;;18.80;99.90;;;;;;5062998;28;38372;-80
2023/09/02 08:00:08;;;;;;;43.47;31.60;;;18.80;99.90;;;;;;5065972;28;36176;-81
2023/09/02 08:02:34;;;;;;;42.20;31.75;;;18.80;99.90;;;;;;5066740;28;39009;-80
2023/09/02 08:05:00;;;;;;;34.75;28.70;;;18.90;99.90;;;;;;5072541;28;38327;-81
2023/09/02 08:07:26;;;;;;;40.03;30.85;;;18.90;99.90;;;;;;5071191;28;36729;-80
2023/09/02 08:09:52;;;;;;;38.67;30.90;;;18.90;99.90;;;;;;5063006;28;37886;-81
2023/09/02 08:12:18;;;;;;;34.42;30.33;;;19.00;99.90;;;;;;5041424;28;37926;-80
2023/09/02 08:14:44;;;;;;;41.35;33.03;;;19.00;99.90;;;;;;5055099;28;39298;-80
2023/09/02 08:17:10;;;;;;;40.20;33.55;;;19.20;99.90;;;;;;5047585;28;36920;-80
2023/09/02 08:19:36;;;;;;;39.30;32.22;;;19.10;99.90;;;;;;5050879;28;37827;-81
2023/09/02 08:22:03;;;;;;;38.28;31.83;;;19.10;99.90;;;;;;5025824;28;43333;-79
2023/09/02 08:24:29;;;;;;;41.28;33.83;;;19.10;99.90;;;;;;5060083;28;37603;-78
2023/09/02 08:26:55;;;;;;;40.72;33.60;;;19.30;99.90;;;;;;5052005;28;37315;-78
2023/09/02 08:29:21;;;;;;;36.53;30.80;;;19.20;99.90;;;;;;5057911;28;37752;-78
2023/09/02 08:31:55;;;;;;;39.13;32.65;;;19.10;99.90;;;;;;5035971;28;37677;-78
2023/09/02 08:34:21;;;;;;;42.42;33.40;;;19.30;99.90;;;;;;5042571;28;37421;-76
2023/09/02 08:36:50;;;;;;;31.92;28.52;;;19.30;99.90;;;;;;5065073;28;37937;-76
2023/09/02 08:39:16;;;;;;;36.55;30.33;;;19.20;99.90;;;;;;5055146;28;37105;-77
2023/09/02 08:41:45;;;;;;;31.40;28.10;;;19.10;99.90;;;;;;5063405;28;38988;-77
2023/09/02 08:44:16;;;;;;;31.35;27.10;;;19.10;99.90;;;;;;5059355;28;38345;-77
2023/09/02 08:46:45;;;;;;;30.08;26.70;;;19.10;99.90;;;;;;5053111;28;39713;-80
2023/09/02 08:49:14;;;;;;;31.52;26.95;;;19.00;99.90;;;;;;5035904;28;36511;-81
2023/09/02 08:51:41;;;;;;;31.13;27.40;;;19.10;99.90;;;;;;5057102;28;39931;-79
2023/09/02 08:54:08;;;;;;;29.88;26.85;;;19.20;99.90;;;;;;5038006;28;38072;-77
2023/09/02 08:56:35;;;;;;;29.73;25.65;;;19.20;99.90;;;;;;5034059;28;38083;-77
2023/09/02 08:59:01;;;;;;;30.45;27.02;;;19.20;99.90;;;;;;5043978;28;36169;-76
2023/09/02 09:01:30;;;;;;;29.02;26.10;;;19.20;99.90;;;;;;5060440;28;46388;-77
2023/09/02 09:03:56;;;;;;;33.90;30.40;;;19.20;99.90;;;;;;5054002;28;38604;-77
2023/09/02 09:06:24;;;;;;;31.92;28.70;;;19.30;99.90;;;;;;5060846;28;39546;-76
2023/09/02 09:08:52;;;;;;;26.67;24.05;;;19.40;99.90;;;;;;5058461;28;38319;-76
2023/09/02 09:11:19;;;;;;;27.45;24.55;;;19.50;99.90;;;;;;5063827;28;39591;-76
2023/09/02 09:13:48;;;;;;;28.58;25.67;;;19.60;99.90;;;;;;5052038;28;38070;-76
2023/09/02 09:16:19;;;;;;;26.05;23.45;;;19.60;99.90;;;;;;5043404;28;36904;-76
2023/09/02 09:18:45;;;;;;;27.03;24.07;;;19.60;99.90;;;;;;5058563;28;37926;-78
2023/09/02 09:21:11;;;;;;;25.83;23.08;;;19.70;99.90;;;;;;5057332;28;38688;-77
2023/09/02 09:23:37;;;;;;;27.00;24.30;;;19.80;99.90;;;;;;5065215;28;39026;-78
2023/09/02 09:26:05;;;;;;;27.52;24.73;;;19.80;99.90;;;;;;5058288;28;38923;-78
2023/09/02 09:28:53;;;;;;;33.35;29.85;;;19.80;99.90;;;;;;5046962;28;36981;-79
2023/09/02 09:31:20;;;;;;;30.83;27.60;;;19.80;99.90;;;;;;5041157;28;37979;-78
2023/09/02 09:33:58;;;;;;;27.20;24.40;;;19.70;99.90;;;;;;5062147;28;37331;-79
2023/09/02 09:36:29;;;;;;;28.25;25.35;;;19.70;99.90;;;;;;5060877;28;37418;-78
2023/09/02 09:39:00;;;;;;;29.85;26.65;;;19.70;99.90;;;;;;5047932;28;36598;-78
2023/09/02 09:41:27;;;;;;;25.58;22.92;;;19.60;99.90;;;;;;5045986;28;37811;-78
2023/09/02 09:44:02;;;;;;;30.98;26.15;;;19.60;99.90;;;;;;5062382;28;38251;-79
2023/09/02 09:46:28;;;;;;;28.48;25.48;;;19.70;99.90;;;;;;5036609;28;47793;-80
2023/09/02 09:49:01;;;;;;;28.10;25.10;;;19.80;99.90;;;;;;5067779;28;37880;-80
2023/09/02 09:51:27;;;;;;;;;;;19.90;99.90;;;;;;5046255;28;48952;-79
2023/09/02 09:53:54;;;;;;;33.38;29.00;;;20.00;99.90;;;;;;5072742;28;39057;-80
2023/09/02 09:56:29;;;;;;;29.17;25.52;;;20.00;99.90;;;;;;5057189;28;37723;-78
2023/09/02 09:59:16;;;;;;;27.33;24.35;;;20.20;99.90;;;;;;5040279;28;38912;-76
2023/09/02 10:01:49;;;;;;;30.38;26.40;;;20.20;99.90;;;;;;5052473;28;48026;-76
2023/09/02 10:04:20;;;;;;;30.75;27.42;;;20.30;99.90;;;;;;5054784;28;37722;-78
2023/09/02 10:06:48;;;;;;;31.30;27.90;;;20.30;99.90;;;;;;5040433;28;38794;-78
2023/09/02 10:09:14;;;;;;;32.72;27.55;;;20.30;99.90;;;;;;5052551;28;37310;-78
2023/09/02 10:11:43;;;;;;;39.40;32.50;;;20.20;99.90;;;;;;5040636;28;38865;-78
2023/09/02 10:14:10;;;;;;;34.60;29.90;;;20.20;99.90;;;;;;5055318;28;41860;-79
2023/09/02 10:16:44;;;;;;;33.05;28.52;;;20.20;99.90;;;;;;5059025;28;37628;-78
2023/09/02 10:19:13;;;;;;;30.63;27.40;;;20.20;99.90;;;;;;5064252;28;37481;-79
2023/09/02 10:21:41;;;;;;;31.90;28.42;;;20.30;99.90;;;;;;5069923;28;38655;-78
2023/09/02 10:24:12;;;;;;;36.63;29.88;;;20.30;99.90;;;;;;5054323;28;37244;-78
2023/09/02 10:26:48;;;;;;;35.08;29.23;;;20.30;99.90;;;;;;5075624;28;38038;-78
2023/09/02 10:29:18;;;;;;;37.47;29.85;;;20.30;99.90;;;;;;5065435;28;37957;-78
2023/09/02 10:31:48;;;;;;;30.23;26.25;;;20.30;99.90;;;;;;5051982;28;37599;-79
2023/09/02 10:34:26;;;;;;;36.20;30.23;;;20.20;99.90;;;;;;5049231;28;37276;-78
2023/09/02 10:36:57;;;;;;;36.40;29.23;;;20.30;99.90;;;;;;5057417;28;37042;-79
2023/09/02 10:39:52;;;;;;;32.63;27.20;;;20.20;99.90;;;;;;5057083;28;36728;-79
2023/09/02 10:42:19;;;;;;;34.78;27.88;;;20.50;99.90;;;;;;5060277;28;38274;-78
2023/09/02 10:44:47;;;;;;;33.58;28.25;;;20.70;99.90;;;;;;5062721;28;37798;-79
2023/09/02 10:47:14;;;;;;;34.53;27.70;;;21.00;99.90;;;;;;5059006;28;37872;-77
2023/09/02 10:49:41;;;;;;;34.60;28.00;;;21.30;99.90;;;;;;5058670;28;37269;-75
2023/09/02 10:52:08;;;;;;;28.05;24.15;;;21.60;99.90;;;;;;5063150;28;39157;-78
2023/09/02 10:55:08;;;;;;;30.85;24.75;;;21.70;99.90;;;;;;5068250;28;39589;-79
2023/09/02 10:57:45;;;;;;;25.55;22.30;;;21.70;99.90;;;;;;5039701;28;46948;-76
2023/09/02 11:00:12;;;;;;;30.92;26.05;;;21.60;99.90;;;;;;5062503;28;38031;-76
2023/09/02 11:02:42;;;;;;;33.28;27.10;;;21.50;99.90;;;;;;5041896;28;38954;-78
2023/09/02 11:05:09;;;;;;;30.20;23.52;;;21.60;99.90;;;;;;5050804;28;37921;-77
2023/09/02 11:07:39;;;;;;;31.38;25.38;;;21.70;99.90;;;;;;5066752;28;37738;-77
2023/09/02 11:10:06;;;;;;;34.50;25.80;;;21.80;99.90;;;;;;5050160;28;37003;-77
2023/09/02 11:12:33;;;;;;;32.00;24.55;;;21.90;99.90;;;;;;5047684;28;37778;-77
2023/09/02 11:15:08;;;;;;;31.23;24.58;;;22.10;99.90;;;;;;5068303;28;38159;-78
2023/09/02 11:17:36;;;;;;;30.90;24.05;;;22.30;99.90;;;;;;5062341;28;47670;-78
2023/09/02 11:20:04;;;;;;;27.08;22.15;;;22.30;99.90;;;;;;5041722;28;39621;-79
2023/09/02 11:23:01;;;;;;;33.28;25.38;;;22.40;99.90;;;;;;5053224;28;46927;-78
2023/09/02 11:25:31;;;;;;;27.20;22.58;;;22.50;99.90;;;;;;5041917;28;47211;-78
2023/09/02 11:28:06;;;;;;;28.48;23.85;;;22.50;99.90;;;;;;5048634;28;37271;-78
2023/09/02 11:30:37;;;;;;;30.50;22.70;;;22.60;99.90;;;;;;5063770;28;48146;-78
2023/09/02 11:33:04;;;;;;;29.33;23.27;;;22.60;99.90;;;;;;5043456;28;37801;-78
2023/09/02 11:35:35;;;;;;;28.35;22.00;;;22.70;99.90;;;;;;5058116;28;39216;-78
2023/09/02 11:38:03;;;;;;;26.67;22.10;;;22.80;99.90;;;;;;5038047;28;37232;-78
2023/09/02 11:40:31;;;;;;;22.80;19.55;;;22.90;99.90;;;;;;5055581;28;48617;-80
2023/09/02 11:43:02;;;;;;;25.50;20.60;;;22.80;99.90;;;;;;5064798;28;39012;-81
2023/09/02 11:45:31;;;;;;;27.92;22.35;;;22.80;99.90;;;;;;5042483;28;47207;-79
2023/09/02 11:47:58;;;;;;;25.95;20.77;;;22.80;99.90;;;;;;5069545;28;38114;-78
2023/09/02 11:50:26;;;;;;;27.80;23.02;;;22.80;99.90;;;;;;5043942;28;36281;-78
2023/09/02 11:52:54;;;;;;;26.15;20.85;;;22.80;99.90;;;;;;5046551;28;40657;-78
2023/09/02 11:55:21;;;;;;;30.17;23.73;;;23.00;99.90;;;;;;5037483;28;37797;-78
2023/09/02 11:57:47;;;;;;;24.75;20.63;;;23.00;99.90;;;;;;5060262;28;37697;-78
2023/09/02 12:00:19;;;;;;;22.23;19.75;;;23.10;99.90;;;;;;5045541;28;37210;-79
2023/09/02 12:02:46;;;;;;;28.45;22.55;;;23.10;99.90;;;;;;5057126;28;38562;-79
2023/09/02 12:05:15;;;;;;;33.97;25.67;;;23.00;99.90;;;;;;5060016;28;37769;-78
2023/09/02 12:07:46;;;;;;;27.35;22.35;;;23.00;99.90;;;;;;5056155;28;37242;-79
2023/09/02 12:10:16;;;;;;;25.52;21.25;;;23.00;99.90;;;;;;5058460;28;36186;-79
2023/09/02 12:12:48;;;;;;;23.05;20.27;;;23.00;99.90;;;;;;5036829;28;37768;-79
2023/09/02 12:15:17;;;;;;;30.23;24.20;;;22.90;99.90;;;;;;5059626;28;38483;-79
2023/09/02 12:17:46;;;;;;;24.90;20.58;;;22.80;99.90;;;;;;5061931;28;20428;-79
2023/09/02 12:20:14;;;;;;;25.95;23.10;;;22.80;99.90;;;;;;5063456;28;38189;-79
2023/09/02 12:22:42;;;;;;;26.55;22.40;;;22.50;99.90;;;;;;5073504;28;37529;-79
2023/09/02 12:25:15;;;;;;;35.83;29.40;;;22.60;99.90;;;;;;5050254;28;38290;-79
2023/09/02 12:27:41;;;;;;;32.13;28.63;;;22.50;99.90;;;;;;5054026;28;39610;-79
2023/09/02 12:30:08;;;;;;;31.42;27.95;;;22.50;99.90;;;;;;5052030;28;37167;-79
2023/09/02 12:32:34;;;;;;;34.28;27.27;;;22.60;99.90;;;;;;5061537;28;39533;-79
2023/09/02 12:35:09;;;;;;;32.03;27.42;;;22.70;99.90;;;;;;5061392;28;38751;-81